sensor_id;sensor_type;location;lat;lon;timestamp;P1;durP1;ratioP1;P2;durP2;ratioP2
47009;SDS011;59230;54.164;-3.124;2022-12-29T00:02:07;29.25;;;3.58;;
47009;SDS011;59230;54.164;-3.124;2022-12-29T00:04:32;20.55;;;4.18;;
47009;SDS011;59230;54.164;-3.124;2022-12-29T00:06:58;19.50;;;3.17;;
47009;SDS011;59230;54.164;-3.124;2022-12-29T00:09:25;26.55;;;3.08;;
47009;SDS011;59230;54.164;-3.124;2022-12-29T00:11:53;23.30;;;3.25;;
47009;SDS011;59230;54.164;-3.124;2022-12-29T00:14:21;25.92;;;3.38;;
47009;SDS011;59230;54.164;-3.124;2022-12-29T00:17:06;31.08;;;4.40;;
47009;SDS011;59230;54.164;-3.124;2022-12-29T00:19:32;18.45;;;2.78;;
47009;SDS011;59230;54.164;-3.124;2022-12-29T00:22:16;22.77;;;2.90;;
47009;SDS011;59230;54.164;-3.124;2022-12-29T00:25:02;21.95;;;4.03;;
47009;SDS011;59230;54.164;-3.124;2022-12-29T00:27:47;27.23;;;3.78;;
47009;SDS011;59230;54.164;-3.124;2022-12-29T00:30:31;30.67;;;3.58;;
47009;SDS011;59230;54.164;-3.124;2022-12-29T00:33:16;28.73;;;3.78;;
47009;SDS011;59230;54.164;-3.124;2022-12-29T00:36:13;20.55;;;2.97;;
47009;SDS011;59230;54.164;-3.124;2022-12-29T00:38:52;20.50;;;3.38;;
47009;SDS011;59230;54.164;-3.124;2022-12-29T00:41:40;24.13;;;3.28;;
47009;SDS011;59230;54.164;-3.124;2022-12-29T00:44:25;42.15;;;4.45;;
47009;SDS011;59230;54.164;-3.124;2022-12-29T00:46:51;26.88;;;3.05;;
47009;SDS011;59230;54.164;-3.124;2022-12-29T00:49:18;24.15;;;3.03;;
47009;SDS011;59230;54.164;-3.124;2022-12-29T00:51:58;29.92;;;3.10;;
47009;SDS011;59230;54.164;-3.124;2022-12-29T00:54:37;21.77;;;3.20;;
47009;SDS011;59230;54.164;-3.124;2022-12-29T00:57:08;22.85;;;3.30;;
47009;SDS011;59230;54.164;-3.124;2022-12-29T00:59:38;15.23;;;2.90;;
47009;SDS011;59230;54.164;-3.124;2022-12-29T01:02:05;16.65;;;2.88;;
47009;SDS011;59230;54.164;-3.124;2022-12-29T01:04:33;22.25;;;2.85;;
47009;SDS011;59230;54.164;-3.124;2022-12-29T01:07:02;17.25;;;2.63;;
47009;SDS011;59230;54.164;-3.124;2022-12-29T01:09:28;19.38;;;2.88;;
47009;SDS011;59230;54.164;-3.124;2022-12-29T01:12:12;20.13;;;2.88;;
47009;SDS011;59230;54.164;-3.124;2022-12-29T01:14:38;21.38;;;2.53;;
47009;SDS011;59230;54.164;-3.124;2022-12-29T01:17:08;19.73;;;2.63;;
47009;SDS011;59230;54.164;-3.124;2022-12-29T01:19:33;21.45;;;2.45;;
47009;SDS011;59230;54.164;-3.124;2022-12-29T01:22:02;17.17;;;2.58;;
47009;SDS011;59230;54.164;-3.124;2022-12-29T01:24:27;27.13;;;3.05;;
47009;SDS011;59230;54.164;-3.124;2022-12-29T01:26:54;22.95;;;2.75;;
47009;SDS011;59230;54.164;-3.124;2022-12-29T01:29:22;23.45;;;2.70;;
47009;SDS011;59230;54.164;-3.124;2022-12-29T01:31:49;19.08;;;2.70;;
47009;SDS011;59230;54.164;-3.124;2022-12-29T01:34:15;23.85;;;3.20;;
47009;SDS011;59230;54.164;-3.124;2022-12-29T01:36:41;25.02;;;3.22;;
47009;SDS011;59230;54.164;-3.124;2022-12-29T01:39:09;15.77;;;2.58;;
47009;SDS011;59230;54.164;-3.124;2022-12-29T01:41:36;19.33;;;2.65;;
47009;SDS011;59230;54.164;-3.124;2022-12-29T01:44:01;24.13;;;2.75;;
47009;SDS011;59230;54.164;-3.124;2022-12-29T01:54:13;15.13;;;3.05;;
47009;SDS011;59230;54.164;-3.124;2022-12-29T01:56:52;23.95;;;3.28;;
47009;SDS011;59230;54.164;-3.124;2022-12-29T01:59:20;17.80;;;2.67;;
47009;SDS011;59230;54.164;-3.124;2022-12-29T02:01:54;22.55;;;2.95;;
47009;SDS011;59230;54.164;-3.124;2022-12-29T02:04:22;13.15;;;2.15;;
47009;SDS011;59230;54.164;-3.124;2022-12-29T02:06:55;22.20;;;2.92;;
47009;SDS011;59230;54.164;-3.124;2022-12-29T02:09:31;16.85;;;2.08;;
47009;SDS011;59230;54.164;-3.124;2022-12-29T02:11:58;22.52;;;2.50;;
47009;SDS011;59230;54.164;-3.124;2022-12-29T02:14:26;17.77;;;1.98;;
47009;SDS011;59230;54.164;-3.124;2022-12-29T02:19:57;22.83;;;3.17;;
47009;SDS011;59230;54.164;-3.124;2022-12-29T02:23:00;20.90;;;2.65;;
47009;SDS011;59230;54.164;-3.124;2022-12-29T02:34:21;20.45;;;2.80;;
47009;SDS011;59230;54.164;-3.124;2022-12-29T02:37:25;14.88;;;2.40;;
47009;SDS011;59230;54.164;-3.124;2022-12-29T02:42:59;19.35;;;2.42;;
47009;SDS011;59230;54.164;-3.124;2022-12-29T02:45:33;18.38;;;2.33;;
47009;SDS011;59230;54.164;-3.124;2022-12-29T02:48:29;15.77;;;2.55;;
47009;SDS011;59230;54.164;-3.124;2022-12-29T02:51:03;15.73;;;2.50;;
47009;SDS011;59230;54.164;-3.124;2022-12-29T02:53:32;23.75;;;3.65;;
47009;SDS011;59230;54.164;-3.124;2022-12-29T02:56:19;17.33;;;2.55;;
47009;SDS011;59230;54.164;-3.124;2022-12-29T02:58:44;14.05;;;2.53;;
47009;SDS011;59230;54.164;-3.124;2022-12-29T03:01:49;15.93;;;3.08;;
47009;SDS011;59230;54.164;-3.124;2022-12-29T03:09:20;15.53;;;2.27;;
47009;SDS011;59230;54.164;-3.124;2022-12-29T03:11:59;23.10;;;2.80;;
47009;SDS011;59230;54.164;-3.124;2022-12-29T03:14:59;18.42;;;2.50;;
47009;SDS011;59230;54.164;-3.124;2022-12-29T03:17:51;27.58;;;2.97;;
47009;SDS011;59230;54.164;-3.124;2022-12-29T03:20:39;20.60;;;2.33;;
47009;SDS011;59230;54.164;-3.124;2022-12-29T03:23:13;19.10;;;2.65;;
47009;SDS011;59230;54.164;-3.124;2022-12-29T03:25:43;21.33;;;2.20;;
47009;SDS011;59230;54.164;-3.124;2022-12-29T03:28:20;20.33;;;3.47;;
47009;SDS011;59230;54.164;-3.124;2022-12-29T03:30:57;26.85;;;3.47;;
47009;SDS011;59230;54.164;-3.124;2022-12-29T03:33:27;19.85;;;2.55;;
47009;SDS011;59230;54.164;-3.124;2022-12-29T03:35:57;22.92;;;3.00;;
47009;SDS011;59230;54.164;-3.124;2022-12-29T03:38:27;19.38;;;2.53;;
47009;SDS011;59230;54.164;-3.124;2022-12-29T03:40:58;21.83;;;3.65;;
47009;SDS011;59230;54.164;-3.124;2022-12-29T03:43:27;20.45;;;2.70;;
47009;SDS011;59230;54.164;-3.124;2022-12-29T03:45:55;14.48;;;2.40;;
47009;SDS011;59230;54.164;-3.124;2022-12-29T03:48:22;24.95;;;2.53;;
47009;SDS011;59230;54.164;-3.124;2022-12-29T03:50:49;24.38;;;3.53;;
47009;SDS011;59230;54.164;-3.124;2022-12-29T03:53:15;19.55;;;3.00;;
47009;SDS011;59230;54.164;-3.124;2022-12-29T03:55:41;36.40;;;3.35;;
47009;SDS011;59230;54.164;-3.124;2022-12-29T03:58:06;24.90;;;2.50;;
47009;SDS011;59230;54.164;-3.124;2022-12-29T04:00:33;24.95;;;2.92;;
47009;SDS011;59230;54.164;-3.124;2022-12-29T04:03:01;26.92;;;3.28;;
47009;SDS011;59230;54.164;-3.124;2022-12-29T04:05:29;23.08;;;3.03;;
47009;SDS011;59230;54.164;-3.124;2022-12-29T04:07:59;26.58;;;2.80;;
47009;SDS011;59230;54.164;-3.124;2022-12-29T04:10:28;24.33;;;3.28;;
47009;SDS011;59230;54.164;-3.124;2022-12-29T04:12:53;20.42;;;3.10;;
47009;SDS011;59230;54.164;-3.124;2022-12-29T04:15:19;28.35;;;3.85;;
47009;SDS011;59230;54.164;-3.124;2022-12-29T04:17:44;13.43;;;2.72;;
47009;SDS011;59230;54.164;-3.124;2022-12-29T04:20:13;16.77;;;2.70;;
47009;SDS011;59230;54.164;-3.124;2022-12-29T04:23:03;22.05;;;3.13;;
47009;SDS011;59230;54.164;-3.124;2022-12-29T04:25:32;24.23;;;3.73;;
47009;SDS011;59230;54.164;-3.124;2022-12-29T04:27:58;27.95;;;3.08;;
47009;SDS011;59230;54.164;-3.124;2022-12-29T04:30:24;24.42;;;3.95;;
47009;SDS011;59230;54.164;-3.124;2022-12-29T04:32:50;33.45;;;4.45;;
47009;SDS011;59230;54.164;-3.124;2022-12-29T04:35:17;27.88;;;3.88;;
47009;SDS011;59230;54.164;-3.124;2022-12-29T04:37:42;28.02;;;3.63;;
47009;SDS011;59230;54.164;-3.124;2022-12-29T04:40:08;25.00;;;3.38;;
47009;SDS011;59230;54.164;-3.124;2022-12-29T04:42:36;24.73;;;3.35;;
47009;SDS011;59230;54.164;-3.124;2022-12-29T04:45:02;29.95;;;3.80;;
47009;SDS011;59230;54.164;-3.124;2022-12-29T04:47:32;26.33;;;3.42;;
47009;SDS011;59230;54.164;-3.124;2022-12-29T04:50:00;25.27;;;3.28;;
47009;SDS011;59230;54.164;-3.124;2022-12-29T04:52:28;30.58;;;2.90;;
47009;SDS011;59230;54.164;-3.124;2022-12-29T04:54:55;22.75;;;3.08;;
47009;SDS011;59230;54.164;-3.124;2022-12-29T04:57:21;31.05;;;3.22;;
47009;SDS011;59230;54.164;-3.124;2022-12-29T04:59:48;17.65;;;3.03;;
47009;SDS011;59230;54.164;-3.124;2022-12-29T05:02:13;40.33;;;3.90;;
47009;SDS011;59230;54.164;-3.124;2022-12-29T05:04:40;29.27;;;3.75;;
47009;SDS011;59230;54.164;-3.124;2022-12-29T05:07:05;18.05;;;2.90;;
47009;SDS011;59230;54.164;-3.124;2022-12-29T05:09:31;31.00;;;3.85;;
47009;SDS011;59230;54.164;-3.124;2022-12-29T05:11:58;23.85;;;3.28;;
47009;SDS011;59230;54.164;-3.124;2022-12-29T05:14:25;33.33;;;3.80;;
47009;SDS011;59230;54.164;-3.124;2022-12-29T05:16:52;28.88;;;3.88;;
47009;SDS011;59230;54.164;-3.124;2022-12-29T05:19:20;30.77;;;3.45;;
47009;SDS011;59230;54.164;-3.124;2022-12-29T05:21:46;29.10;;;3.47;;
47009;SDS011;59230;54.164;-3.124;2022-12-29T05:24:11;37.42;;;3.88;;
47009;SDS011;59230;54.164;-3.124;2022-12-29T05:26:37;27.60;;;3.33;;
47009;SDS011;59230;54.164;-3.124;2022-12-29T05:29:03;36.78;;;4.40;;
47009;SDS011;59230;54.164;-3.124;2022-12-29T05:31:33;28.67;;;3.70;;
47009;SDS011;59230;54.164;-3.124;2022-12-29T05:34:00;36.13;;;3.83;;
47009;SDS011;59230;54.164;-3.124;2022-12-29T05:36:28;29.88;;;4.30;;
47009;SDS011;59230;54.164;-3.124;2022-12-29T05:38:54;27.85;;;3.40;;
47009;SDS011;59230;54.164;-3.124;2022-12-29T05:41:20;31.15;;;4.35;;
47009;SDS011;59230;54.164;-3.124;2022-12-29T05:43:46;21.75;;;3.25;;
47009;SDS011;59230;54.164;-3.124;2022-12-29T05:46:11;30.88;;;3.97;;
47009;SDS011;59230;54.164;-3.124;2022-12-29T05:48:36;41.72;;;4.75;;
47009;SDS011;59230;54.164;-3.124;2022-12-29T05:51:03;30.42;;;3.95;;
47009;SDS011;59230;54.164;-3.124;2022-12-29T05:53:31;32.20;;;3.90;;
47009;SDS011;59230;54.164;-3.124;2022-12-29T05:55:59;33.08;;;3.90;;
47009;SDS011;59230;54.164;-3.124;2022-12-29T05:58:25;26.58;;;3.50;;
47009;SDS011;59230;54.164;-3.124;2022-12-29T06:00:52;30.05;;;4.20;;
47009;SDS011;59230;54.164;-3.124;2022-12-29T06:03:17;24.33;;;3.15;;
47009;SDS011;59230;54.164;-3.124;2022-12-29T06:05:46;19.67;;;3.33;;
47009;SDS011;59230;54.164;-3.124;2022-12-29T06:08:13;26.55;;;3.33;;
47009;SDS011;59230;54.164;-3.124;2022-12-29T06:10:38;28.95;;;4.72;;
47009;SDS011;59230;54.164;-3.124;2022-12-29T06:13:07;32.40;;;3.80;;
47009;SDS011;59230;54.164;-3.124;2022-12-29T06:15:37;35.03;;;4.72;;
47009;SDS011;59230;54.164;-3.124;2022-12-29T06:18:06;29.10;;;3.30;;
47009;SDS011;59230;54.164;-3.124;2022-12-29T06:20:34;24.65;;;4.00;;
47009;SDS011;59230;54.164;-3.124;2022-12-29T06:23:03;27.85;;;4.50;;
47009;SDS011;59230;54.164;-3.124;2022-12-29T06:25:30;29.63;;;3.53;;
47009;SDS011;59230;54.164;-3.124;2022-12-29T06:27:59;16.65;;;3.40;;
47009;SDS011;59230;54.164;-3.124;2022-12-29T06:30:28;28.88;;;3.47;;
47009;SDS011;59230;54.164;-3.124;2022-12-29T06:32:54;21.33;;;3.38;;
47009;SDS011;59230;54.164;-3.124;2022-12-29T06:35:21;25.63;;;3.30;;
47009;SDS011;59230;54.164;-3.124;2022-12-29T06:37:58;24.77;;;4.55;;
47009;SDS011;59230;54.164;-3.124;2022-12-29T06:42:53;22.73;;;3.40;;
47009;SDS011;59230;54.164;-3.124;2022-12-29T06:45:19;21.85;;;2.88;;
47009;SDS011;59230;54.164;-3.124;2022-12-29T06:47:44;26.05;;;4.13;;
47009;SDS011;59230;54.164;-3.124;2022-12-29T06:50:09;23.00;;;2.50;;
47009;SDS011;59230;54.164;-3.124;2022-12-29T06:52:36;23.55;;;2.65;;
47009;SDS011;59230;54.164;-3.124;2022-12-29T06:55:05;21.90;;;2.70;;
47009;SDS011;59230;54.164;-3.124;2022-12-29T06:57:34;22.80;;;3.20;;
47009;SDS011;59230;54.164;-3.124;2022-12-29T07:00:01;17.52;;;3.65;;
47009;SDS011;59230;54.164;-3.124;2022-12-29T07:02:27;16.92;;;2.60;;
47009;SDS011;59230;54.164;-3.124;2022-12-29T07:04:54;27.38;;;3.97;;
47009;SDS011;59230;54.164;-3.124;2022-12-29T07:07:21;23.92;;;3.20;;
47009;SDS011;59230;54.164;-3.124;2022-12-29T07:09:49;23.30;;;3.50;;
47009;SDS011;59230;54.164;-3.124;2022-12-29T07:12:14;27.80;;;3.10;;
47009;SDS011;59230;54.164;-3.124;2022-12-29T07:14:41;22.15;;;3.45;;
47009;SDS011;59230;54.164;-3.124;2022-12-29T07:17:11;33.10;;;3.92;;
47009;SDS011;59230;54.164;-3.124;2022-12-29T07:19:37;34.35;;;3.97;;
47009;SDS011;59230;54.164;-3.124;2022-12-29T07:22:03;27.50;;;4.78;;
47009;SDS011;59230;54.164;-3.124;2022-12-29T07:24:28;38.58;;;4.10;;
47009;SDS011;59230;54.164;-3.124;2022-12-29T07:26:56;27.55;;;4.45;;
47009;SDS011;59230;54.164;-3.124;2022-12-29T07:29:21;32.97;;;3.83;;
47009;SDS011;59230;54.164;-3.124;2022-12-29T07:31:47;29.85;;;3.40;;
47009;SDS011;59230;54.164;-3.124;2022-12-29T07:34:12;25.88;;;3.17;;
47009;SDS011;59230;54.164;-3.124;2022-12-29T07:36:39;27.70;;;3.20;;
47009;SDS011;59230;54.164;-3.124;2022-12-29T07:39:04;22.33;;;4.22;;
47009;SDS011;59230;54.164;-3.124;2022-12-29T07:41:33;22.75;;;3.90;;
47009;SDS011;59230;54.164;-3.124;2022-12-29T07:43:59;21.27;;;2.95;;
47009;SDS011;59230;54.164;-3.124;2022-12-29T07:46:26;27.40;;;4.00;;
47009;SDS011;59230;54.164;-3.124;2022-12-29T07:48:53;26.70;;;4.13;;
47009;SDS011;59230;54.164;-3.124;2022-12-29T07:51:19;26.75;;;4.22;;
47009;SDS011;59230;54.164;-3.124;2022-12-29T07:53:45;24.15;;;3.70;;
47009;SDS011;59230;54.164;-3.124;2022-12-29T07:56:11;20.63;;;3.13;;
47009;SDS011;59230;54.164;-3.124;2022-12-29T07:58:38;37.08;;;4.63;;
47009;SDS011;59230;54.164;-3.124;2022-12-29T08:01:03;25.80;;;3.80;;
47009;SDS011;59230;54.164;-3.124;2022-12-29T08:03:30;26.48;;;3.50;;
47009;SDS011;59230;54.164;-3.124;2022-12-29T08:05:56;35.15;;;4.40;;
47009;SDS011;59230;54.164;-3.124;2022-12-29T08:08:22;24.80;;;4.18;;
47009;SDS011;59230;54.164;-3.124;2022-12-29T08:10:49;31.77;;;4.43;;
47009;SDS011;59230;54.164;-3.124;2022-12-29T08:13:16;27.02;;;3.63;;
47009;SDS011;59230;54.164;-3.124;2022-12-29T08:15:47;24.52;;;3.78;;
47009;SDS011;59230;54.164;-3.124;2022-12-29T08:18:13;27.23;;;3.45;;
47009;SDS011;59230;54.164;-3.124;2022-12-29T08:20:39;31.60;;;4.07;;
47009;SDS011;59230;54.164;-3.124;2022-12-29T08:23:05;31.58;;;4.47;;
47009;SDS011;59230;54.164;-3.124;2022-12-29T08:25:33;36.15;;;5.18;;
47009;SDS011;59230;54.164;-3.124;2022-12-29T08:28:00;36.92;;;5.28;;
47009;SDS011;59230;54.164;-3.124;2022-12-29T08:30:27;38.97;;;4.80;;
47009;SDS011;59230;54.164;-3.124;2022-12-29T08:32:53;42.53;;;5.45;;
47009;SDS011;59230;54.164;-3.124;2022-12-29T08:35:19;42.83;;;4.45;;
47009;SDS011;59230;54.164;-3.124;2022-12-29T08:37:45;38.10;;;4.70;;
47009;SDS011;59230;54.164;-3.124;2022-12-29T08:40:13;28.85;;;3.97;;
47009;SDS011;59230;54.164;-3.124;2022-12-29T08:42:40;44.65;;;4.75;;
47009;SDS011;59230;54.164;-3.124;2022-12-29T08:45:07;46.90;;;5.13;;
47009;SDS011;59230;54.164;-3.124;2022-12-29T08:47:34;42.45;;;5.13;;
47009;SDS011;59230;54.164;-3.124;2022-12-29T08:50:01;33.00;;;4.20;;
47009;SDS011;59230;54.164;-3.124;2022-12-29T08:52:28;36.67;;;4.95;;
47009;SDS011;59230;54.164;-3.124;2022-12-29T08:54:55;29.50;;;5.20;;
47009;SDS011;59230;54.164;-3.124;2022-12-29T08:57:20;38.13;;;4.70;;
47009;SDS011;59230;54.164;-3.124;2022-12-29T08:59:45;35.47;;;4.85;;
47009;SDS011;59230;54.164;-3.124;2022-12-29T09:02:13;28.70;;;4.78;;
47009;SDS011;59230;54.164;-3.124;2022-12-29T09:04:41;33.72;;;5.30;;
47009;SDS011;59230;54.164;-3.124;2022-12-29T09:07:06;31.98;;;4.20;;
47009;SDS011;59230;54.164;-3.124;2022-12-29T09:09:32;37.40;;;4.63;;
47009;SDS011;59230;54.164;-3.124;2022-12-29T09:11:58;41.47;;;6.13;;
47009;SDS011;59230;54.164;-3.124;2022-12-29T09:14:23;31.92;;;5.47;;
47009;SDS011;59230;54.164;-3.124;2022-12-29T09:16:51;40.17;;;4.47;;
47009;SDS011;59230;54.164;-3.124;2022-12-29T09:19:35;43.00;;;4.65;;
47009;SDS011;59230;54.164;-3.124;2022-12-29T09:22:02;33.90;;;4.20;;
47009;SDS011;59230;54.164;-3.124;2022-12-29T09:24:29;26.17;;;4.43;;
47009;SDS011;59230;54.164;-3.124;2022-12-29T09:26:57;32.70;;;4.15;;
47009;SDS011;59230;54.164;-3.124;2022-12-29T09:29:22;30.50;;;4.00;;
47009;SDS011;59230;54.164;-3.124;2022-12-29T09:31:50;27.00;;;3.80;;
47009;SDS011;59230;54.164;-3.124;2022-12-29T09:34:17;22.38;;;2.88;;
47009;SDS011;59230;54.164;-3.124;2022-12-29T09:36:42;27.15;;;3.80;;
47009;SDS011;59230;54.164;-3.124;2022-12-29T09:39:08;35.90;;;4.07;;
47009;SDS011;59230;54.164;-3.124;2022-12-29T09:41:39;35.90;;;5.10;;
47009;SDS011;59230;54.164;-3.124;2022-12-29T09:47:03;34.55;;;4.25;;
47009;SDS011;59230;54.164;-3.124;2022-12-29T09:54:56;26.98;;;4.43;;
47009;SDS011;59230;54.164;-3.124;2022-12-29T09:57:56;36.05;;;5.10;;
47009;SDS011;59230;54.164;-3.124;2022-12-29T10:00:33;28.63;;;3.45;;
47009;SDS011;59230;54.164;-3.124;2022-12-29T10:03:04;32.80;;;4.22;;
47009;SDS011;59230;54.164;-3.124;2022-12-29T10:08:24;31.98;;;3.65;;
47009;SDS011;59230;54.164;-3.124;2022-12-29T10:19:47;29.27;;;4.18;;
47009;SDS011;59230;54.164;-3.124;2022-12-29T10:25:29;28.45;;;4.15;;
47009;SDS011;59230;54.164;-3.124;2022-12-29T10:27:59;29.88;;;3.25;;
47009;SDS011;59230;54.164;-3.124;2022-12-29T10:30:45;40.42;;;5.32;;
47009;SDS011;59230;54.164;-3.124;2022-12-29T10:33:27;31.23;;;4.43;;
47009;SDS011;59230;54.164;-3.124;2022-12-29T10:36:38;36.08;;;3.97;;
47009;SDS011;59230;54.164;-3.124;2022-12-29T10:39:13;27.95;;;3.55;;
47009;SDS011;59230;54.164;-3.124;2022-12-29T10:41:59;34.78;;;4.63;;
47009;SDS011;59230;54.164;-3.124;2022-12-29T10:44:34;25.65;;;4.47;;
47009;SDS011;59230;54.164;-3.124;2022-12-29T10:47:06;33.33;;;3.42;;
47009;SDS011;59230;54.164;-3.124;2022-12-29T10:49:40;25.10;;;4.05;;
47009;SDS011;59230;54.164;-3.124;2022-12-29T10:52:08;29.17;;;4.20;;
47009;SDS011;59230;54.164;-3.124;2022-12-29T10:54:41;28.92;;;3.10;;
47009;SDS011;59230;54.164;-3.124;2022-12-29T10:57:40;27.13;;;4.10;;
47009;SDS011;59230;54.164;-3.124;2022-12-29T11:00:16;24.95;;;4.10;;
47009;SDS011;59230;54.164;-3.124;2022-12-29T11:08:21;33.35;;;4.10;;
47009;SDS011;59230;54.164;-3.124;2022-12-29T11:11:01;31.67;;;4.75;;
47009;SDS011;59230;54.164;-3.124;2022-12-29T11:13:33;28.25;;;4.30;;
47009;SDS011;59230;54.164;-3.124;2022-12-29T11:16:02;34.80;;;4.25;;
47009;SDS011;59230;54.164;-3.124;2022-12-29T11:18:32;30.83;;;3.95;;
47009;SDS011;59230;54.164;-3.124;2022-12-29T11:21:06;28.98;;;3.70;;
47009;SDS011;59230;54.164;-3.124;2022-12-29T11:24:02;23.45;;;3.72;;
47009;SDS011;59230;54.164;-3.124;2022-12-29T11:26:34;37.03;;;4.30;;
47009;SDS011;59230;54.164;-3.124;2022-12-29T11:31:39;30.90;;;4.25;;
47009;SDS011;59230;54.164;-3.124;2022-12-29T11:34:06;22.23;;;2.92;;
47009;SDS011;59230;54.164;-3.124;2022-12-29T11:36:35;35.88;;;4.18;;
47009;SDS011;59230;54.164;-3.124;2022-12-29T11:39:03;27.30;;;3.63;;
47009;SDS011;59230;54.164;-3.124;2022-12-29T11:41:33;27.20;;;3.35;;
47009;SDS011;59230;54.164;-3.124;2022-12-29T11:44:02;32.70;;;4.57;;
47009;SDS011;59230;54.164;-3.124;2022-12-29T11:46:37;28.88;;;4.03;;
47009;SDS011;59230;54.164;-3.124;2022-12-29T11:49:05;34.65;;;3.92;;
47009;SDS011;59230;54.164;-3.124;2022-12-29T11:54:30;31.92;;;4.05;;
47009;SDS011;59230;54.164;-3.124;2022-12-29T11:57:15;33.17;;;4.70;;
47009;SDS011;59230;54.164;-3.124;2022-12-29T11:59:54;31.85;;;3.85;;
47009;SDS011;59230;54.164;-3.124;2022-12-29T12:02:35;17.50;;;3.28;;
47009;SDS011;59230;54.164;-3.124;2022-12-29T12:05:10;35.10;;;3.33;;
47009;SDS011;59230;54.164;-3.124;2022-12-29T12:07:57;25.73;;;3.42;;
47009;SDS011;59230;54.164;-3.124;2022-12-29T12:16:16;34.13;;;4.28;;
47009;SDS011;59230;54.164;-3.124;2022-12-29T12:21:45;29.60;;;3.97;;
47009;SDS011;59230;54.164;-3.124;2022-12-29T12:29:40;39.10;;;4.47;;
47009;SDS011;59230;54.164;-3.124;2022-12-29T12:34:49;35.65;;;5.25;;
47009;SDS011;59230;54.164;-3.124;2022-12-29T12:43:17;32.05;;;4.40;;
47009;SDS011;59230;54.164;-3.124;2022-12-29T12:56:47;26.77;;;3.75;;
47009;SDS011;59230;54.164;-3.124;2022-12-29T12:59:26;22.80;;;3.50;;
47009;SDS011;59230;54.164;-3.124;2022-12-29T13:04:51;25.27;;;4.43;;
47009;SDS011;59230;54.164;-3.124;2022-12-29T13:20:34;27.30;;;4.32;;
47009;SDS011;59230;54.164;-3.124;2022-12-29T13:23:07;18.60;;;3.50;;
47009;SDS011;59230;54.164;-3.124;2022-12-29T13:26:05;31.73;;;3.97;;
47009;SDS011;59230;54.164;-3.124;2022-12-29T13:37:00;27.00;;;4.45;;
47009;SDS011;59230;54.164;-3.124;2022-12-29T13:39:33;30.35;;;5.03;;
47009;SDS011;59230;54.164;-3.124;2022-12-29T13:42:01;42.20;;;8.13;;
47009;SDS011;59230;54.164;-3.124;2022-12-29T13:44:30;36.88;;;7.63;;
47009;SDS011;59230;54.164;-3.124;2022-12-29T13:47:14;34.72;;;5.15;;
47009;SDS011;59230;54.164;-3.124;2022-12-29T13:49:51;29.67;;;4.88;;
47009;SDS011;59230;54.164;-3.124;2022-12-29T13:57:36;42.63;;;5.10;;
47009;SDS011;59230;54.164;-3.124;2022-12-29T14:00:21;40.50;;;5.68;;
47009;SDS011;59230;54.164;-3.124;2022-12-29T14:05:34;32.03;;;4.40;;
47009;SDS011;59230;54.164;-3.124;2022-12-29T14:08:04;25.77;;;3.50;;
47009;SDS011;59230;54.164;-3.124;2022-12-29T14:10:36;22.77;;;4.13;;
47009;SDS011;59230;54.164;-3.124;2022-12-29T14:13:22;24.23;;;3.78;;
47009;SDS011;59230;54.164;-3.124;2022-12-29T14:15:54;30.20;;;4.18;;
47009;SDS011;59230;54.164;-3.124;2022-12-29T14:18:28;29.67;;;4.75;;
47009;SDS011;59230;54.164;-3.124;2022-12-29T14:23:45;34.67;;;5.72;;
47009;SDS011;59230;54.164;-3.124;2022-12-29T14:26:14;26.10;;;3.60;;
47009;SDS011;59230;54.164;-3.124;2022-12-29T14:31:50;26.90;;;4.25;;
47009;SDS011;59230;54.164;-3.124;2022-12-29T14:36:54;29.63;;;4.57;;
47009;SDS011;59230;54.164;-3.124;2022-12-29T14:39:36;26.92;;;3.70;;
47009;SDS011;59230;54.164;-3.124;2022-12-29T14:44:31;27.38;;;4.88;;
47009;SDS011;59230;54.164;-3.124;2022-12-29T14:47:04;34.08;;;4.32;;
47009;SDS011;59230;54.164;-3.124;2022-12-29T14:49:39;28.50;;;4.75;;
47009;SDS011;59230;54.164;-3.124;2022-12-29T14:52:12;32.05;;;5.05;;
47009;SDS011;59230;54.164;-3.124;2022-12-29T14:54:52;25.33;;;4.10;;
47009;SDS011;59230;54.164;-3.124;2022-12-29T14:57:37;36.88;;;5.35;;
47009;SDS011;59230;54.164;-3.124;2022-12-29T15:03:04;31.63;;;4.88;;
47009;SDS011;59230;54.164;-3.124;2022-12-29T15:05:34;25.15;;;3.72;;
47009;SDS011;59230;54.164;-3.124;2022-12-29T15:08:05;27.80;;;3.88;;
47009;SDS011;59230;54.164;-3.124;2022-12-29T15:10:34;21.23;;;3.85;;
47009;SDS011;59230;54.164;-3.124;2022-12-29T15:13:05;26.67;;;4.07;;
47009;SDS011;59230;54.164;-3.124;2022-12-29T15:15:37;26.20;;;4.05;;
47009;SDS011;59230;54.164;-3.124;2022-12-29T15:18:26;19.35;;;3.22;;
47009;SDS011;59230;54.164;-3.124;2022-12-29T15:20:58;31.80;;;4.65;;
47009;SDS011;59230;54.164;-3.124;2022-12-29T15:23:39;37.08;;;4.50;;
47009;SDS011;59230;54.164;-3.124;2022-12-29T15:26:05;34.97;;;4.50;;
47009;SDS011;59230;54.164;-3.124;2022-12-29T15:28:43;26.88;;;4.38;;
47009;SDS011;59230;54.164;-3.124;2022-12-29T15:33:47;31.63;;;3.95;;
47009;SDS011;59230;54.164;-3.124;2022-12-29T15:39:30;35.92;;;4.60;;
47009;SDS011;59230;54.164;-3.124;2022-12-29T15:42:16;22.00;;;4.40;;
47009;SDS011;59230;54.164;-3.124;2022-12-29T15:45:02;22.98;;;3.00;;
47009;SDS011;59230;54.164;-3.124;2022-12-29T15:47:29;18.35;;;2.45;;
47009;SDS011;59230;54.164;-3.124;2022-12-29T15:50:04;24.17;;;3.67;;
47009;SDS011;59230;54.164;-3.124;2022-12-29T15:52:32;16.50;;;2.65;;
47009;SDS011;59230;54.164;-3.124;2022-12-29T15:55:00;16.30;;;2.55;;
47009;SDS011;59230;54.164;-3.124;2022-12-29T15:57:27;19.45;;;3.10;;
47009;SDS011;59230;54.164;-3.124;2022-12-29T15:59:54;24.73;;;3.97;;
47009;SDS011;59230;54.164;-3.124;2022-12-29T16:02:20;26.67;;;3.85;;
47009;SDS011;59230;54.164;-3.124;2022-12-29T16:04:47;27.88;;;3.83;;
47009;SDS011;59230;54.164;-3.124;2022-12-29T16:07:22;21.02;;;3.53;;
47009;SDS011;59230;54.164;-3.124;2022-12-29T16:09:56;28.05;;;3.90;;
47009;SDS011;59230;54.164;-3.124;2022-12-29T16:12:26;26.85;;;4.07;;
47009;SDS011;59230;54.164;-3.124;2022-12-29T16:15:00;23.45;;;3.45;;
47009;SDS011;59230;54.164;-3.124;2022-12-29T16:17:45;21.90;;;3.85;;
47009;SDS011;59230;54.164;-3.124;2022-12-29T16:20:17;24.83;;;4.93;;
47009;SDS011;59230;54.164;-3.124;2022-12-29T16:22:49;32.47;;;5.47;;
47009;SDS011;59230;54.164;-3.124;2022-12-29T16:25:19;38.72;;;7.30;;
47009;SDS011;59230;54.164;-3.124;2022-12-29T16:27:50;35.15;;;4.10;;
47009;SDS011;59230;54.164;-3.124;2022-12-29T16:30:19;31.88;;;4.65;;
47009;SDS011;59230;54.164;-3.124;2022-12-29T16:32:52;24.52;;;3.90;;
47009;SDS011;59230;54.164;-3.124;2022-12-29T16:35:25;25.17;;;3.88;;
47009;SDS011;59230;54.164;-3.124;2022-12-29T16:38:21;26.35;;;3.88;;
47009;SDS011;59230;54.164;-3.124;2022-12-29T16:40:49;37.75;;;4.93;;
47009;SDS011;59230;54.164;-3.124;2022-12-29T16:43:22;33.42;;;4.35;;
47009;SDS011;59230;54.164;-3.124;2022-12-29T16:51:11;25.38;;;4.85;;
47009;SDS011;59230;54.164;-3.124;2022-12-29T16:53:41;24.90;;;4.63;;
47009;SDS011;59230;54.164;-3.124;2022-12-29T16:56:15;30.38;;;4.35;;
47009;SDS011;59230;54.164;-3.124;2022-12-29T16:58:59;36.10;;;4.25;;
47009;SDS011;59230;54.164;-3.124;2022-12-29T17:01:36;22.30;;;3.78;;
47009;SDS011;59230;54.164;-3.124;2022-12-29T17:04:08;29.55;;;4.45;;
47009;SDS011;59230;54.164;-3.124;2022-12-29T17:06:34;35.33;;;5.78;;
47009;SDS011;59230;54.164;-3.124;2022-12-29T17:09:00;27.65;;;4.03;;
47009;SDS011;59230;54.164;-3.124;2022-12-29T17:11:31;29.30;;;4.30;;
47009;SDS011;59230;54.164;-3.124;2022-12-29T17:17:16;24.15;;;5.60;;
47009;SDS011;59230;54.164;-3.124;2022-12-29T17:19:51;21.23;;;3.78;;
47009;SDS011;59230;54.164;-3.124;2022-12-29T17:22:20;27.17;;;5.38;;
47009;SDS011;59230;54.164;-3.124;2022-12-29T17:24:54;33.42;;;4.53;;